Time;durP1;ratioP1;P1;durP2;ratioP2;P2;SDS_P1;SDS_P2;PMS_P1;PMS_P2;Temp;Humidity;BMP_temperature;BMP_pressure;BME280_temperature;BME280_humidity;BME280_pressure;Samples;Min_cycle;Max_cycle;Signal;HPM_P1;HPM_P2
2021/10/09 00:00:19;;;;;;;19.60;8.60;;;;;;;0.58;71.54;98470.52;116411;1182;71634;-69
2021/10/09 00:03:07;;;;;;;16.50;8.30;;;;;;;0.55;72.01;98464.14;116117;1182;67714;-73
2021/10/09 00:05:37;;;;;;;17.80;9.00;;;;;;;0.49;73.21;98463.27;115992;1182;68064;-70
2021/10/09 00:08:13;;;;;;;21.10;8.80;;;;;;;0.43;71.91;98455.64;116242;1180;59546;-74
2021/10/09 00:10:45;;;;;;;16.50;8.50;;;;;;;0.41;71.75;98461.41;116105;1182;59553;-65
2021/10/09 00:13:15;;;;;;;18.80;8.00;;;;;;;0.40;71.92;98459.35;115929;1184;71574;-72
2021/10/09 00:15:45;;;;;;;17.50;8.70;;;;;;;0.40;72.44;98456.17;116001;1182;67643;-71
2021/10/09 00:18:14;;;;;;;22.40;9.70;;;;;;;0.39;71.47;98458.70;116129;1182;68492;-74
2021/10/09 00:20:44;;;;;;;22.70;9.40;;;;;;;0.33;71.58;98463.91;115844;1182;59596;-72
2021/10/09 00:23:14;;;;;;;19.20;10.50;;;;;;;0.25;74.28;98462.09;116407;1182;59596;-69
2021/10/09 00:25:43;;;;;;;21.00;9.60;;;;;;;0.21;72.86;98457.78;116421;1181;70572;-73
2021/10/09 00:28:13;;;;;;;17.10;8.50;;;;;;;0.17;73.22;98451.65;116327;1182;68534;-71
2021/10/09 00:30:43;;;;;;;21.50;11.10;;;;;;;0.13;74.72;98451.77;116183;1182;69073;-69
2021/10/09 00:33:13;;;;;;;22.50;9.50;;;;;;;0.08;74.75;98449.52;116392;1182;59550;-74
2021/10/09 00:35:42;;;;;;;18.90;9.20;;;;;;;0.06;73.01;98449.32;116362;1184;59544;-74
2021/10/09 00:38:12;;;;;;;16.90;9.10;;;;;;;0.07;74.02;98446.85;116429;1182;70807;-71
2021/10/09 00:40:42;;;;;;;23.80;10.30;;;;;;;0.08;75.54;98445.64;116390;1182;68229;-73
2021/10/09 00:43:11;;;;;;;16.40;10.30;;;;;;;0.09;75.71;98444.11;116353;1182;67565;-72
2021/10/09 00:45:54;;;;;;;26.60;9.50;;;;;;;0.09;75.65;98443.48;116513;1181;59525;-66
2021/10/09 00:48:25;;;;;;;23.80;11.00;;;;;;;0.09;74.54;98444.66;116382;1182;59535;-73
2021/10/09 00:50:55;;;;;;;22.90;10.70;;;;;;;0.08;74.67;98447.27;116411;1182;71143;-70
2021/10/09 00:53:26;;;;;;;19.50;9.50;;;;;;;0.05;74.57;98443.86;116425;1180;67411;-70
2021/10/09 00:55:56;;;;;;;19.20;8.50;;;;;;;0.03;75.70;98438.52;116594;1182;69532;-64
2021/10/09 00:58:28;;;;;;;21.00;10.60;;;;;;;0.02;75.58;98436.07;116438;1182;59479;-71
2021/10/09 01:00:58;;;;;;;21.00;11.00;;;;;;;0.01;75.22;98437.65;116509;1182;59542;-64
2021/10/09 01:03:30;;;;;;;19.70;10.40;;;;;;;-0.03;75.54;98430.94;116148;1182;72280;-70
2021/10/09 01:06:00;;;;;;;23.50;12.20;;;;;;;-0.05;77.20;98431.41;116201;1182;67595;-67
2021/10/09 01:08:30;;;;;;;24.50;10.20;;;;;;;-0.09;75.65;98432.48;116187;1182;67519;-74
2021/10/09 01:11:02;;;;;;;17.10;7.80;;;;;;;-0.10;75.28;98428.48;116438;1181;59983;-70
2021/10/09 01:13:31;;;;;;;21.30;10.00;;;;;;;-0.11;76.97;98432.11;116498;1180;59525;-71
2021/10/09 01:16:02;;;;;;;;;;;;;;;-0.12;75.56;98432.24;116433;1182;71360;-73
2021/10/09 01:18:31;;;;;;;16.10;7.40;;;;;;;-0.14;76.29;98427.90;116507;1182;66948;-67
2021/10/09 01:21:01;;;;;;;23.10;8.90;;;;;;;-0.17;78.06;98427.52;116278;1183;69248;-68
2021/10/09 01:23:35;;;;;;;16.80;8.10;;;;;;;-0.18;76.80;98420.16;116238;1182;59557;-69
2021/10/09 01:26:10;;;;;;;15.90;8.40;;;;;;;-0.19;77.44;98419.33;116163;1182;59957;-69
2021/10/09 01:28:45;;;;;;;16.80;7.80;;;;;;;-0.20;77.40;98417.67;116108;1181;70549;-71
2021/10/09 01:31:15;;;;;;;14.00;6.80;;;;;;;-0.21;76.93;98412.04;116025;1184;67600;-74
2021/10/09 01:33:46;;;;;;;15.20;8.50;;;;;;;-0.20;77.07;98412.54;116527;1182;68226;-73
2021/10/09 01:36:20;;;;;;;19.90;8.70;;;;;;;-0.21;75.89;98416.64;116516;1181;59526;-71
2021/10/09 01:38:52;;;;;;;15.70;7.30;;;;;;;-0.21;75.82;98411.52;116532;1181;59554;-68
2021/10/09 01:41:28;;;;;;;15.40;7.50;;;;;;;-0.19;76.28;98410.87;116511;1182;71247;-70
2021/10/09 01:43:57;;;;;;;18.10;8.50;;;;;;;-0.17;76.61;98411.64;116500;1182;68178;-74
2021/10/09 01:46:27;;;;;;;21.40;8.90;;;;;;;-0.15;76.64;98408.05;116425;1182;68526;-68
2021/10/09 01:48:56;;;;;;;14.90;7.70;;;;;;;-0.16;75.60;98409.81;116431;1182;59641;-69
2021/10/09 01:51:28;;;;;;;20.40;9.90;;;;;;;-0.14;75.88;98411.71;116420;1182;59508;-68
2021/10/09 01:53:59;;;;;;;21.50;9.40;;;;;;;-0.14;76.94;98408.92;116490;1181;70556;-66
2021/10/09 01:56:30;;;;;;;19.00;11.20;;;;;;;-0.14;77.24;98410.02;116052;1181;67774;-66
2021/10/09 01:59:00;;;;;;;;;;;;;;;-0.15;77.71;98405.92;115920;1182;68436;-70
2021/10/09 02:01:36;;;;;;;17.00;8.00;;;;;;;-0.17;78.39;98406.19;116112;1183;59557;-65
2021/10/09 02:04:07;;;;;;;17.40;9.30;;;;;;;-0.18;77.81;98407.89;116461;1182;59539;-65
2021/10/09 02:06:43;;;;;;;21.80;9.50;;;;;;;-0.20;76.51;98404.39;116423;1182;71343;-65
2021/10/09 02:09:16;;;;;;;20.20;10.10;;;;;;;-0.22;77.24;98408.44;116447;1182;67587;-69
2021/10/09 02:11:50;;;;;;;20.60;10.70;;;;;;;-0.22;76.86;98410.45;116064;1185;69600;-73
2021/10/09 02:17:13;;;;;;;25.80;11.90;;;;;;;-0.19;76.60;98411.02;116074;1182;59500;-64
2021/10/09 02:25:49;;;;;;;22.60;11.10;;;;;;;-0.19;77.21;98406.04;116418;1182;68552;-70
2021/10/09 02:28:22;;;;;;;26.40;12.70;;;;;;;-0.20;75.95;98407.49;116364;1182;59564;-74
2021/10/09 02:30:54;;;;;;;25.80;10.80;;;;;;;-0.22;76.17;98409.23;116227;1182;59953;-70
2021/10/09 02:33:27;;;;;;;25.10;12.00;;;;;;;-0.23;77.03;98409.82;116229;1184;70602;-72
2021/10/09 02:35:57;;;;;;;19.30;10.00;;;;;;;-0.24;76.84;98415.09;116388;1182;67831;-66
2021/10/09 02:38:27;;;;;;;20.50;11.20;;;;;;;-0.24;77.83;98415.93;116514;1182;68433;-65
2021/10/09 02:40:57;;;;;;;16.30;8.50;;;;;;;-0.26;77.11;98419.70;116453;1181;59587;-72
2021/10/09 02:43:27;;;;;;;14.90;7.40;;;;;;;-0.29;76.11;98416.88;116327;1182;59513;-67
2021/10/09 02:45:57;;;;;;;15.20;7.40;;;;;;;-0.33;77.58;98420.05;116419;1182;70454;-66
2021/10/09 02:48:30;;;;;;;20.00;7.60;;;;;;;-0.35;76.76;98416.05;116443;1182;68402;-73
2021/10/09 02:51:00;;;;;;;18.60;8.30;;;;;;;-0.37;77.63;98421.30;116401;1182;68660;-68
2021/10/09 02:53:29;;;;;;;20.40;8.60;;;;;;;-0.38;76.39;98419.74;116330;1182;59593;-71
2021/10/09 02:56:00;;;;;;;17.60;8.10;;;;;;;-0.42;77.08;98419.24;116437;1182;59509;-69
2021/10/09 02:58:33;;;;;;;19.00;8.10;;;;;;;-0.45;77.36;98424.20;116425;1182;71270;-73
2021/10/09 03:01:03;;;;;;;19.20;7.60;;;;;;;-0.47;77.83;98423.98;116398;1182;67893;-64
2021/10/09 03:03:33;;;;;;;17.70;8.20;;;;;;;-0.50;77.65;98423.61;116413;1182;68328;-72
2021/10/09 03:06:04;;;;;;;12.90;7.00;;;;;;;-0.51;78.08;98422.55;116173;1182;59636;-68
2021/10/09 03:08:34;;;;;;;15.90;8.00;;;;;;;-0.53;77.89;98419.91;116213;1182;59542;-65
2021/10/09 03:11:05;;;;;;;13.30;6.80;;;;;;;-0.56;77.37;98421.54;116143;1182;70621;-70
2021/10/09 03:13:36;;;;;;;12.70;6.90;;;;;;;-0.58;77.24;98416.55;116007;1183;67990;-71
2021/10/09 03:16:06;;;;;;;15.50;7.60;;;;;;;-0.61;78.70;98419.73;116039;1183;68420;-73
2021/10/09 03:18:36;;;;;;;17.50;6.60;;;;;;;-0.64;78.59;98427.20;116109;1182;59718;-69
2021/10/09 03:21:08;;;;;;;14.40;6.80;;;;;;;-0.67;78.78;98426.56;116007;1184;59560;-68
2021/10/09 03:23:38;;;;;;;13.80;7.10;;;;;;;-0.69;78.46;98422.94;115982;1184;71343;-74
2021/10/09 03:26:08;;;;;;;11.70;6.30;;;;;;;-0.70;77.82;98420.49;116004;1184;68399;-73
2021/10/09 03:28:38;;;;;;;21.80;8.10;;;;;;;-0.72;78.18;98422.62;116064;1182;68527;-69
2021/10/09 03:31:08;;;;;;;;;;;;;;;-0.73;77.58;98423.02;116001;1182;59573;-75
2021/10/09 03:33:39;;;;;;;13.50;6.30;;;;;;;-0.74;78.65;98420.29;115974;1182;59478;-71
2021/10/09 03:36:09;;;;;;;12.30;6.40;;;;;;;-0.74;79.03;98423.08;116020;1182;71284;-69
2021/10/09 03:38:40;;;;;;;15.90;6.80;;;;;;;-0.75;78.70;98422.73;115989;1183;67473;-66
2021/10/09 03:41:12;;;;;;;15.30;7.30;;;;;;;-0.74;78.23;98422.14;116086;1184;69247;-68
2021/10/09 03:43:43;;;;;;;18.20;6.60;;;;;;;-0.75;77.87;98422.19;116038;1179;59529;-68
2021/10/09 03:46:21;;;;;;;12.70;7.00;;;;;;;-0.74;78.41;98427.20;115976;1182;59555;-72
2021/10/09 03:49:06;;;;;;;14.60;6.90;;;;;;;-0.73;77.33;98426.36;116235;1178;70442;-66
2021/10/09 03:54:25;;;;;;;18.70;8.40;;;;;;;-0.78;77.85;98425.13;116395;1182;68646;-69
2021/10/09 03:56:55;;;;;;;17.10;8.80;;;;;;;-0.85;77.39;98429.73;116396;1182;59563;-71
2021/10/09 03:59:24;;;;;;;16.10;8.00;;;;;;;-0.91;77.27;98431.96;116402;1182;59597;-66
2021/10/09 04:01:54;;;;;;;18.90;9.90;;;;;;;-0.95;76.79;98430.05;116462;1182;71327;-67
2021/10/09 04:04:27;;;;;;;21.20;9.20;;;;;;;-0.99;77.15;98427.91;116444;1182;67670;-66
2021/10/09 04:06:57;;;;;;;17.00;9.50;;;;;;;-1.02;77.42;98430.61;116359;1182;69018;-71
2021/10/09 04:09:27;;;;;;;17.40;9.70;;;;;;;-1.05;77.23;98426.65;116479;1182;59531;-71
2021/10/09 04:11:57;;;;;;;14.10;7.30;;;;;;;-1.07;78.75;98429.81;116607;1181;59555;-72
2021/10/09 04:14:27;;;;;;;17.80;8.50;;;;;;;-1.09;79.70;98427.51;116417;1182;70582;-72
2021/10/09 04:16:56;;;;;;;19.50;9.00;;;;;;;-1.09;79.75;98430.59;116302;1182;67524;-70
2021/10/09 04:19:25;;;;;;;21.20;8.90;;;;;;;-1.10;78.88;98433.20;116407;1181;69219;-67
2021/10/09 04:21:55;;;;;;;20.00;7.20;;;;;;;-1.11;79.81;98432.89;116388;1182;59593;-66
2021/10/09 04:24:25;;;;;;;19.00;9.10;;;;;;;-1.10;80.89;98435.14;116443;1182;59536;-72
2021/10/09 04:26:55;;;;;;;16.50;8.90;;;;;;;-1.10;79.71;98440.48;116456;1182;70566;-73
2021/10/09 04:29:25;;;;;;;16.80;8.80;;;;;;;-1.10;79.47;98440.80;116407;1182;67781;-70
2021/10/09 04:31:54;;;;;;;19.70;9.70;;;;;;;-1.10;78.43;98445.16;116456;1182;68293;-67
2021/10/09 04:34:23;;;;;;;21.50;10.40;;;;;;;-1.13;78.55;98447.48;116402;1182;59516;-68
2021/10/09 04:36:55;;;;;;;17.20;9.50;;;;;;;-1.14;78.37;98450.70;116414;1182;59512;-67
2021/10/09 04:39:25;;;;;;;25.10;11.20;;;;;;;-1.15;80.68;98452.45;116207;1182;71962;-68
2021/10/09 04:41:55;;;;;;;19.30;10.30;;;;;;;-1.15;80.36;98453.19;116264;1181;68577;-67
2021/10/09 04:44:25;;;;;;;18.00;9.10;;;;;;;-1.13;79.43;98451.20;116091;1181;68611;-67
2021/10/09 04:46:55;;;;;;;11.50;6.90;;;;;;;-1.10;80.19;98451.08;116100;1182;59625;-70
2021/10/09 04:49:24;;;;;;;12.30;7.70;;;;;;;-1.08;80.06;98450.85;116354;1182;59511;-70
2021/10/09 04:51:54;;;;;;;16.70;7.70;;;;;;;-1.04;79.61;98452.61;116454;1182;70570;-70
2021/10/09 04:54:24;;;;;;;19.20;10.60;;;;;;;-1.00;80.11;98457.55;116170;1182;68445;-65
2021/10/09 04:56:53;;;;;;;23.40;10.40;;;;;;;-0.97;79.42;98455.61;116175;1184;69192;-68
2021/10/09 04:59:22;;;;;;;13.80;8.50;;;;;;;-0.95;79.54;98457.95;116091;1182;60028;-70
2021/10/09 05:01:53;;;;;;;22.90;10.00;;;;;;;-0.90;80.65;98461.91;116229;1181;59502;-74
2021/10/09 05:04:22;;;;;;;19.80;8.50;;;;;;;-0.83;80.82;98461.81;116234;1181;70783;-66
2021/10/09 05:06:53;;;;;;;13.30;8.30;;;;;;;-0.78;80.91;98460.58;116131;1182;68692;-71
2021/10/09 05:09:24;;;;;;;16.30;8.10;;;;;;;-0.72;80.60;98460.38;116562;1183;69330;-71
2021/10/09 05:11:53;;;;;;;15.10;7.60;;;;;;;-0.65;80.20;98460.83;115969;1181;58762;-69
2021/10/09 05:14:22;;;;;;;14.60;7.80;;;;;;;-0.59;79.94;98458.84;116109;1182;59554;-66
2021/10/09 05:16:52;;;;;;;;;;;;;;;-0.53;79.53;98457.78;116188;1182;71370;-69
2021/10/09 05:19:22;;;;;;;13.30;6.50;;;;;;;-0.46;79.20;98457.77;116315;1183;68327;-71
2021/10/09 05:21:51;;;;;;;19.00;7.90;;;;;;;-0.35;78.69;98457.38;116233;1184;71034;-72
2021/10/09 05:24:20;;;;;;;25.50;13.60;;;;;;;-0.25;78.00;98461.64;116247;1182;59556;-70
2021/10/09 05:26:50;;;;;;;39.60;18.50;;;;;;;-0.14;78.04;98462.73;116143;1173;59965;-70
2021/10/09 05:29:20;;;;;;;37.40;20.10;;;;;;;-0.06;77.63;98460.73;116555;1181;71389;-65
2021/10/09 05:31:52;;;;;;;42.40;22.90;;;;;;;0.04;77.86;98460.30;116492;1181;68213;-73
2021/10/09 05:34:20;;;;;;;39.50;22.60;;;;;;;0.11;78.10;98461.77;116404;1181;69380;-73
2021/10/09 05:36:50;;;;;;;44.80;25.20;;;;;;;0.19;77.63;98465.48;116392;1182;59599;-67
2021/10/09 05:39:19;;;;;;;40.90;21.90;;;;;;;0.29;77.61;98468.17;116444;1183;59507;-74
2021/10/09 05:41:49;;;;;;;34.30;20.60;;;;;;;0.38;78.01;98468.20;116453;1182;71429;-73
2021/10/09 05:44:18;;;;;;;47.30;25.20;;;;;;;0.50;77.59;98468.42;116434;1182;66701;-70
2021/10/09 05:46:48;;;;;;;51.50;24.20;;;;;;;0.60;77.24;98468.92;116325;1182;71015;-66
2021/10/09 05:49:18;;;;;;;33.40;19.70;;;;;;;0.73;77.03;98470.59;116465;1181;59535;-67
2021/10/09 05:52:08;;;;;;;42.10;22.20;;;;;;;0.84;77.53;98473.54;116468;1183;59550;-73
2021/10/09 05:55:27;;;;;;;37.80;21.30;;;;;;;1.10;77.12;98477.37;116465;1182;70749;-75
2021/10/09 05:57:45;;;;;;;38.10;22.10;;;;;;;1.37;76.73;98479.59;116450;1182;68426;-70
2021/10/09 06:00:57;;;;;;;32.90;20.90;;;;;;;1.67;75.31;98481.36;116425;1181;68738;-65
2021/10/09 06:47:29;;;;;;;;;;;;;;;5.69;60.38;98490.23;116395;1182;59585;-68
2021/10/09 07:01:04;;;;;;;17.10;7.90;;;;;;;7.54;52.68;98490.81;116210;1182;59538;-67
2021/10/09 07:03:35;;;;;;;19.10;7.60;;;;;;;8.28;52.46;98495.32;116032;1182;71442;-73
2021/10/09 07:06:05;;;;;;;;;;;;;;;8.76;50.24;98493.33;116041;1184;67561;-72
2021/10/09 07:08:48;;;;;;;15.30;7.60;;;;;;;9.39;48.85;98495.29;116285;1184;68747;-70
2021/10/09 07:11:36;;;;;;;23.10;9.90;;;;;;;9.77;47.16;98493.16;116377;1184;59534;-69
2021/10/09 07:14:06;;;;;;;19.00;7.60;;;;;;;9.89;47.21;98493.68;116357;1182;59506;-71
2021/10/09 07:16:36;;;;;;;14.90;6.30;;;;;;;9.69;47.09;98491.65;116381;1180;70396;-74
2021/10/09 07:19:06;;;;;;;16.30;7.90;;;;;;;9.31;46.96;98493.38;116286;1182;67427;-67
2021/10/09 07:21:38;;;;;;;17.30;7.60;;;;;;;9.14;48.10;98493.81;116348;1181;68712;-68
2021/10/09 07:24:27;;;;;;;18.80;7.80;;;;;;;9.05;48.63;98494.02;116354;1184;59561;-74
2021/10/09 07:26:57;;;;;;;19.00;9.40;;;;;;;8.66;50.04;98499.54;116401;1182;59560;-72
2021/10/09 07:29:26;;;;;;;23.60;10.30;;;;;;;8.63;50.00;98498.91;116281;1180;70649;-66
2021/10/09 07:31:55;;;;;;;22.10;10.90;;;;;;;8.37;50.50;98498.21;116148;1182;67710;-71
2021/10/09 07:34:25;;;;;;;16.70;9.20;;;;;;;8.11;51.28;98500.56;116479;1184;69400;-72
2021/10/09 07:36:53;;;;;;;28.90;10.80;;;;;;;7.74;53.57;98502.91;116405;1182;59546;-72
2021/10/09 07:39:22;;;;;;;23.60;11.00;;;;;;;7.90;53.05;98505.18;116419;1182;59513;-70
2021/10/09 07:41:55;;;;;;;21.00;12.50;;;;;;;7.88;53.22;98505.89;116263;1182;71970;-75
2021/10/09 07:44:25;;;;;;;16.50;10.60;;;;;;;7.90;53.74;98506.52;116326;1184;67745;-74
2021/10/09 07:46:54;;;;;;;23.50;12.90;;;;;;;7.87;54.47;98508.80;116405;1182;69404;-72
2021/10/09 07:49:24;;;;;;;26.70;12.50;;;;;;;8.00;53.76;98508.87;116234;1182;59611;-70
2021/10/09 07:51:53;;;;;;;25.10;12.50;;;;;;;8.12;53.90;98507.66;116407;1182;59494;-69
2021/10/09 07:54:22;;;;;;;19.30;11.90;;;;;;;8.38;53.31;98501.38;116409;1180;71053;-74
2021/10/09 07:56:51;;;;;;;19.60;11.70;;;;;;;8.74;53.19;98507.06;116372;1181;67701;-71
2021/10/09 07:59:20;;;;;;;23.50;13.50;;;;;;;9.07;52.13;98501.60;116198;1183;68497;-73
2021/10/09 08:01:49;;;;;;;25.10;11.60;;;;;;;9.32;51.70;98501.03;116272;1182;59493;-74
2021/10/09 08:04:19;;;;;;;24.80;11.10;;;;;;;9.56;51.66;98503.60;116386;1182;59602;-67
2021/10/09 08:06:48;;;;;;;19.30;12.10;;;;;;;10.12;50.81;98502.55;116212;1182;71392;-66
2021/10/09 08:09:17;;;;;;;23.30;12.20;;;;;;;10.43;49.26;98500.39;116334;1184;68383;-71
2021/10/09 08:11:46;;;;;;;26.80;12.70;;;;;;;10.84;48.26;98502.44;116137;1182;68474;-68
2021/10/09 08:14:15;;;;;;;28.40;11.60;;;;;;;11.20;46.94;98504.30;116326;1183;59593;-66
2021/10/09 08:16:44;;;;;;;24.90;10.20;;;;;;;11.25;46.47;98504.63;116502;1182;59551;-67
2021/10/09 08:19:13;;;;;;;21.10;9.50;;;;;;;11.67;46.55;98503.41;116504;1184;70557;-70
2021/10/09 08:21:44;;;;;;;20.50;9.80;;;;;;;12.29;45.30;98501.15;116466;1180;67354;-69
2021/10/09 08:24:29;;;;;;;;;;;;;;;12.68;43.16;98500.05;116446;1182;68512;-70
2021/10/09 08:27:08;;;;;;;15.20;7.60;;;;;;;13.35;42.86;98494.14;116411;1183;59511;-68
2021/10/09 08:40:48;;;;;;;18.20;7.00;;;;;;;15.76;36.92;98489.77;116450;1182;59513;-72
2021/10/09 08:43:17;;;;;;;14.20;6.70;;;;;;;15.77;36.12;98489.89;116480;1182;59548;-71
2021/10/09 08:45:46;;;;;;;14.50;6.10;;;;;;;16.06;36.31;98489.87;116438;1180;71218;-72
2021/10/09 08:48:18;;;;;;;19.20;7.10;;;;;;;16.16;35.25;98487.08;116413;1182;68435;-67
2021/10/09 08:50:47;;;;;;;11.20;6.30;;;;;;;16.28;34.90;98489.57;116398;1182;68783;-70
2021/10/09 08:53:16;;;;;;;18.80;7.00;;;;;;;16.54;34.11;98484.98;116428;1182;59571;-69
2021/10/09 08:55:47;;;;;;;15.00;5.70;;;;;;;16.39;33.13;98485.22;116456;1182;59532;-76
2021/10/09 08:58:35;;;;;;;17.50;7.10;;;;;;;16.40;33.67;98483.39;116448;1183;70895;-66
2021/10/09 09:01:16;;;;;;;13.40;6.60;;;;;;;16.93;33.61;98479.80;116433;1182;67743;-70
2021/10/09 09:35:04;;;;;;;11.80;5.20;;;;;;;20.95;25.80;98469.56;116402;1183;59927;-71
2021/10/09 09:38:53;;;;;;;16.60;5.50;;;;;;;21.19;26.04;98463.34;116436;1182;59596;-74
2021/10/09 09:40:37;;;;;;;13.90;5.10;;;;;;;22.04;25.68;98462.46;116333;1183;71471;-72
2021/10/09 09:43:08;;;;;;;13.50;5.80;;;;;;;21.19;24.89;98464.07;116466;1182;67713;-70
2021/10/09 09:45:38;;;;;;;12.60;5.90;;;;;;;21.65;25.20;98470.20;116150;1182;68537;-69
2021/10/09 09:48:07;;;;;;;11.20;5.70;;;;;;;21.53;24.49;98468.75;116408;1182;59596;-69
2021/10/09 09:50:37;;;;;;;13.00;5.70;;;;;;;21.71;23.02;98464.92;116417;1182;59497;-69
2021/10/09 09:53:06;;;;;;;12.20;5.80;;;;;;;21.15;23.71;98461.89;116442;1182;71700;-69
2021/10/09 09:55:35;;;;;;;11.90;5.50;;;;;;;20.64;25.29;98457.00;116428;1183;68814;-69
2021/10/09 09:58:23;;;;;;;13.80;6.40;;;;;;;19.91;25.46;98456.50;116408;1182;68398;-67
2021/10/09 10:00:59;;;;;;;12.60;6.50;;;;;;;19.45;26.48;98456.58;116380;1182;59546;-76
2021/10/09 10:03:29;;;;;;;10.40;6.10;;;;;;;19.52;25.59;98453.27;116468;1179;59536;-76
2021/10/09 10:05:58;;;;;;;10.90;6.00;;;;;;;19.06;26.00;98454.67;116342;1184;71431;-75
2021/10/09 10:08:27;;;;;;;11.30;5.60;;;;;;;19.17;26.32;98453.51;116424;1182;67707;-72
2021/10/09 10:10:58;;;;;;;16.30;6.20;;;;;;;19.52;24.96;98444.34;116462;1182;68575;-80
2021/10/09 10:13:32;;;;;;;17.80;9.20;;;;;;;18.85;26.21;98446.91;116287;1182;59569;-72
2021/10/09 10:16:06;;;;;;;17.00;8.10;;;;;;;18.19;27.81;98449.20;116411;1182;59549;-70
2021/10/09 10:18:44;;;;;;;11.40;6.40;;;;;;;17.86;28.29;98448.61;116204;1184;71424;-67
2021/10/09 10:21:16;;;;;;;12.10;6.40;;;;;;;17.95;29.40;98445.23;116398;1183;68500;-69
2021/10/09 10:23:46;;;;;;;12.30;6.10;;;;;;;19.23;27.91;98438.95;116445;1183;69235;-67
2021/10/09 10:26:21;;;;;;;12.70;6.30;;;;;;;20.09;26.79;98437.02;116378;1184;59526;-74
2021/10/09 10:28:53;;;;;;;15.60;6.30;;;;;;;20.96;25.92;98435.55;116443;1181;59545;-74
2021/10/09 10:31:23;;;;;;;19.70;9.80;;;;;;;21.60;24.73;98437.86;116412;1182;70581;-78
2021/10/09 10:34:12;;;;;;;13.80;7.90;;;;;;;21.75;23.74;98432.22;116413;1182;68871;-78
2021/10/09 10:36:46;;;;;;;13.30;6.90;;;;;;;21.56;23.62;98433.66;116450;1183;68711;-67
2021/10/09 10:39:20;;;;;;;14.10;7.10;;;;;;;21.60;23.08;98433.98;116469;1182;59559;-70
2021/10/09 10:42:04;;;;;;;15.10;6.80;;;;;;;21.22;23.69;98437.77;116424;1182;59551;-75
2021/10/09 10:47:48;;;;;;;13.70;6.40;;;;;;;20.56;24.50;98436.05;116419;1184;67714;-71
2021/10/09 10:51:03;;;;;;;15.50;6.40;;;;;;;19.96;25.34;98436.39;116424;1181;68457;-68
2021/10/09 10:54:11;;;;;;;12.90;7.20;;;;;;;20.50;23.94;98434.45;116370;1181;59534;-72
2021/10/09 10:56:58;;;;;;;12.20;6.70;;;;;;;20.12;24.39;98437.39;116396;1182;59481;-71
2021/10/09 11:02:25;;;;;;;12.60;6.70;;;;;;;20.61;24.65;98433.80;116260;1184;68444;-68
2021/10/09 11:04:58;;;;;;;11.20;6.50;;;;;;;20.15;25.65;98436.23;116512;1183;68698;-72
2021/10/09 11:07:31;;;;;;;10.40;5.70;;;;;;;20.32;24.38;98434.05;116422;1182;59524;-78
2021/10/09 11:10:16;;;;;;;11.70;6.00;;;;;;;19.27;25.40;98430.81;116462;1181;59538;-68
2021/10/09 11:12:48;;;;;;;12.90;5.90;;;;;;;18.55;26.11;98429.56;116435;1181;70965;-75
2021/10/09 11:15:28;;;;;;;13.70;6.70;;;;;;;18.12;27.93;98429.59;116477;1182;67243;-75
2021/10/09 11:18:04;;;;;;;14.20;6.40;;;;;;;17.84;29.18;98421.91;116359;1182;69235;-77
2021/10/09 11:20:42;;;;;;;15.10;6.70;;;;;;;17.82;27.92;98430.63;116491;1182;59536;-70
2021/10/09 11:23:15;;;;;;;12.00;6.90;;;;;;;17.15;28.24;98430.34;116505;1183;59535;-68
2021/10/09 11:25:47;;;;;;;12.30;7.00;;;;;;;16.71;29.32;98433.08;116463;1183;70587;-76
2021/10/09 11:28:23;;;;;;;13.80;6.50;;;;;;;16.70;30.43;98434.53;116329;1183;68529;-73
2021/10/09 11:30:55;;;;;;;13.10;8.00;;;;;;;16.43;29.99;98429.84;116484;1184;69249;-77
2021/10/09 11:33:26;;;;;;;16.70;8.00;;;;;;;16.14;30.73;98426.98;116426;1183;59577;-74
2021/10/09 11:35:56;;;;;;;15.10;7.20;;;;;;;15.49;31.22;98427.80;116453;1182;59969;-79
2021/10/09 11:38:30;;;;;;;12.70;6.80;;;;;;;15.17;31.89;98428.42;116452;1184;71440;-75
2021/10/09 11:41:07;;;;;;;13.80;6.90;;;;;;;14.70;32.71;98425.33;116455;1184;67071;-68
2021/10/09 11:55:56;;;;;;;14.80;6.40;;;;;;;14.75;33.15;98426.39;116473;1181;68276;-74
2021/10/09 11:58:25;;;;;;;14.30;6.90;;;;;;;14.75;32.82;98431.55;116440;1181;67626;-69
2021/10/09 12:00:54;;;;;;;11.90;6.40;;;;;;;14.54;32.60;98430.11;116439;1182;59527;-70
2021/10/09 12:03:33;;;;;;;15.30;6.70;;;;;;;14.45;32.92;98428.43;116407;1182;59509;-72
2021/10/09 12:06:11;;;;;;;15.30;7.50;;;;;;;14.38;33.63;98425.60;116370;1182;70484;-66
2021/10/09 12:08:48;;;;;;;18.40;7.40;;;;;;;14.42;33.74;98429.81;116244;1184;68766;-72
2021/10/09 12:11:21;;;;;;;12.80;7.60;;;;;;;14.22;33.28;98425.19;116365;1183;69085;-70
2021/10/09 12:13:58;;;;;;;59.00;27.20;;;;;;;14.06;33.80;98428.34;116386;1184;59600;-72
2021/10/09 12:16:48;;;;;;;19.70;7.90;;;;;;;13.95;34.27;98425.52;116445;1183;59507;-79
2021/10/09 12:19:28;;;;;;;;;;;;;;;13.81;34.42;98423.03;116436;1182;71419;-71
2021/10/09 12:22:06;;;;;;;24.50;13.30;;;;;;;13.79;34.56;98421.35;116459;1181;67914;-70
2021/10/09 12:24:48;;;;;;;23.20;11.90;;;;;;;13.89;34.18;98420.60;116374;1184;69641;-72
2021/10/09 12:27:35;;;;;;;14.50;7.80;;;;;;;13.86;34.53;98417.20;116302;1183;59542;-67
2021/10/09 12:30:12;;;;;;;26.10;12.80;;;;;;;13.82;34.50;98418.01;116430;1183;59510;-70
2021/10/09 12:32:44;;;;;;;14.50;7.90;;;;;;;13.73;34.51;98413.38;116411;1182;71405;-77
2021/10/09 12:35:21;;;;;;;19.60;9.50;;;;;;;13.67;35.09;98416.34;116478;1182;68394;-77
2021/10/09 12:37:58;;;;;;;16.50;7.80;;;;;;;13.68;34.77;98415.83;116422;1181;68715;-73
2021/10/09 12:40:35;;;;;;;14.30;7.50;;;;;;;13.71;34.96;98415.59;116510;1183;59558;-70
2021/10/09 12:43:07;;;;;;;17.30;7.90;;;;;;;13.86;34.57;98411.04;116460;1184;59543;-71
2021/10/09 12:45:37;;;;;;;14.70;7.40;;;;;;;14.01;34.47;98413.27;116420;1182;72055;-75
2021/10/09 12:48:06;;;;;;;13.80;7.10;;;;;;;14.14;34.25;98408.29;116245;1183;68689;-77
2021/10/09 12:50:38;;;;;;;16.50;7.90;;;;;;;14.24;34.26;98411.14;116427;1184;69287;-70
2021/10/09 12:53:08;;;;;;;17.10;7.60;;;;;;;14.16;33.70;98410.23;116434;1184;59545;-67
2021/10/09 12:55:37;;;;;;;16.80;7.70;;;;;;;14.19;33.93;98412.21;116396;1182;59509;-68
2021/10/09 12:58:08;;;;;;;13.30;7.80;;;;;;;14.10;34.23;98411.20;116366;1183;71986;-75
2021/10/09 13:00:39;;;;;;;16.90;9.30;;;;;;;14.06;34.41;98412.02;116400;1182;68393;-72
2021/10/09 13:03:09;;;;;;;18.00;7.90;;;;;;;14.00;34.35;98409.09;116368;1184;69126;-78
2021/10/09 13:05:38;;;;;;;18.00;7.70;;;;;;;13.84;34.48;98407.52;116427;1182;59643;-76
2021/10/09 13:08:07;;;;;;;15.40;7.60;;;;;;;13.69;34.64;98408.81;116387;1183;59558;-73
2021/10/09 13:10:40;;;;;;;17.10;8.90;;;;;;;13.52;34.92;98409.86;116404;1183;71358;-73
2021/10/09 13:13:09;;;;;;;16.00;8.40;;;;;;;13.46;35.53;98408.91;116392;1183;67404;-79
2021/10/09 13:15:38;;;;;;;19.20;8.20;;;;;;;13.50;35.63;98406.20;116394;1182;69457;-73
2021/10/09 13:18:07;;;;;;;17.10;8.90;;;;;;;13.53;35.89;98403.33;116325;1183;59603;-73
2021/10/09 13:20:37;;;;;;;20.10;7.60;;;;;;;13.63;35.61;98401.57;116415;1182;59561;-75
2021/10/09 13:23:07;;;;;;;19.80;8.30;;;;;;;13.66;35.40;98402.22;116130;1183;71529;-75
2021/10/09 13:25:40;;;;;;;18.70;8.40;;;;;;;13.69;35.01;98405.73;116425;1183;68472;-73
2021/10/09 13:28:10;;;;;;;14.70;7.30;;;;;;;13.87;34.94;98401.23;116427;1182;69522;-69
2021/10/09 13:30:39;;;;;;;15.80;7.40;;;;;;;14.10;34.27;98400.46;116388;1182;59530;-72
2021/10/09 13:33:08;;;;;;;17.40;8.00;;;;;;;14.30;34.04;98400.05;116376;1184;59538;-71
2021/10/09 13:35:37;;;;;;;23.20;8.70;;;;;;;14.34;34.37;98398.09;116286;1182;71481;-71
2021/10/09 13:38:08;;;;;;;16.60;8.10;;;;;;;14.37;34.48;98399.92;116458;1184;68298;-73
2021/10/09 13:40:39;;;;;;;17.00;8.30;;;;;;;14.46;34.63;98399.51;116424;1181;68526;-76
2021/10/09 13:43:12;;;;;;;16.90;8.60;;;;;;;14.62;34.07;98399.05;116440;1182;59526;-71
2021/10/09 13:45:43;;;;;;;16.30;7.80;;;;;;;14.82;33.61;98401.07;116410;1182;59581;-71
2021/10/09 13:48:13;;;;;;;20.60;8.20;;;;;;;14.94;33.25;98400.16;116282;1182;70726;-74
2021/10/09 13:50:52;;;;;;;17.00;7.70;;;;;;;14.84;33.72;98404.03;116438;1182;68197;-79